sensor_id;sensor_type;location;lat;lon;timestamp;P1;durP1;ratioP1;P2;durP2;ratioP2
10731;SDS011;5417;42.686;23.244;2023-03-16T00:00:20;0.40;;;0.40;;
10731;SDS011;5417;42.686;23.244;2023-03-16T00:02:48;0.70;;;0.60;;
10731;SDS011;5417;42.686;23.244;2023-03-16T00:05:15;0.80;;;0.70;;
10731;SDS011;5417;42.686;23.244;2023-03-16T00:07:42;0.50;;;0.50;;
10731;SDS011;5417;42.686;23.244;2023-03-16T00:10:09;0.70;;;0.70;;
10731;SDS011;5417;42.686;23.244;2023-03-16T00:12:37;0.57;;;0.57;;
10731;SDS011;5417;42.686;23.244;2023-03-16T00:15:09;0.67;;;0.67;;
10731;SDS011;5417;42.686;23.244;2023-03-16T00:17:36;0.90;;;0.90;;
10731;SDS011;5417;42.686;23.244;2023-03-16T00:20:03;0.67;;;0.67;;
10731;SDS011;5417;42.686;23.244;2023-03-16T00:22:32;0.70;;;0.70;;
10731;SDS011;5417;42.686;23.244;2023-03-16T00:24:59;0.60;;;0.60;;
10731;SDS011;5417;42.686;23.244;2023-03-16T00:27:26;0.50;;;0.50;;
10731;SDS011;5417;42.686;23.244;2023-03-16T00:29:53;0.60;;;0.60;;
10731;SDS011;5417;42.686;23.244;2023-03-16T00:32:23;0.60;;;0.60;;
10731;SDS011;5417;42.686;23.244;2023-03-16T00:34:51;0.40;;;0.40;;
10731;SDS011;5417;42.686;23.244;2023-03-16T00:37:19;0.40;;;0.40;;
10731;SDS011;5417;42.686;23.244;2023-03-16T00:39:47;0.70;;;0.70;;
10731;SDS011;5417;42.686;23.244;2023-03-16T00:42:15;0.57;;;0.57;;
10731;SDS011;5417;42.686;23.244;2023-03-16T00:44:43;0.60;;;0.60;;
10731;SDS011;5417;42.686;23.244;2023-03-16T00:47:11;0.60;;;0.60;;
10731;SDS011;5417;42.686;23.244;2023-03-16T00:49:41;0.50;;;0.50;;
10731;SDS011;5417;42.686;23.244;2023-03-16T00:52:10;0.60;;;0.60;;
10731;SDS011;5417;42.686;23.244;2023-03-16T00:54:39;0.30;;;0.30;;
10731;SDS011;5417;42.686;23.244;2023-03-16T00:57:08;0.43;;;0.43;;
10731;SDS011;5417;42.686;23.244;2023-03-16T00:59:36;0.30;;;0.30;;
10731;SDS011;5417;42.686;23.244;2023-03-16T01:02:04;0.50;;;0.50;;
10731;SDS011;5417;42.686;23.244;2023-03-16T01:04:32;0.40;;;0.40;;
10731;SDS011;5417;42.686;23.244;2023-03-16T01:07:01;0.30;;;0.30;;
10731;SDS011;5417;42.686;23.244;2023-03-16T01:09:28;0.50;;;0.50;;
10731;SDS011;5417;42.686;23.244;2023-03-16T01:11:55;0.50;;;0.50;;
10731;SDS011;5417;42.686;23.244;2023-03-16T01:14:22;0.60;;;0.60;;
10731;SDS011;5417;42.686;23.244;2023-03-16T01:16:49;0.50;;;0.50;;
10731;SDS011;5417;42.686;23.244;2023-03-16T01:19:17;0.40;;;0.40;;
10731;SDS011;5417;42.686;23.244;2023-03-16T01:21:43;0.37;;;0.37;;
10731;SDS011;5417;42.686;23.244;2023-03-16T01:24:12;0.53;;;0.40;;
10731;SDS011;5417;42.686;23.244;2023-03-16T01:26:39;0.40;;;0.40;;
10731;SDS011;5417;42.686;23.244;2023-03-16T01:29:06;0.40;;;0.40;;
10731;SDS011;5417;42.686;23.244;2023-03-16T01:31:33;0.30;;;0.30;;
10731;SDS011;5417;42.686;23.244;2023-03-16T01:34:00;0.37;;;0.37;;
10731;SDS011;5417;42.686;23.244;2023-03-16T01:36:28;0.33;;;0.33;;
10731;SDS011;5417;42.686;23.244;2023-03-16T01:38:56;0.47;;;0.47;;
10731;SDS011;5417;42.686;23.244;2023-03-16T01:41:24;0.40;;;0.40;;
10731;SDS011;5417;42.686;23.244;2023-03-16T01:43:52;0.47;;;0.47;;
10731;SDS011;5417;42.686;23.244;2023-03-16T01:46:23;0.40;;;0.40;;
10731;SDS011;5417;42.686;23.244;2023-03-16T01:48:59;0.30;;;0.30;;
10731;SDS011;5417;42.686;23.244;2023-03-16T01:51:32;0.30;;;0.30;;
10731;SDS011;5417;42.686;23.244;2023-03-16T01:54:03;0.30;;;0.30;;
10731;SDS011;5417;42.686;23.244;2023-03-16T01:56:37;0.37;;;0.37;;
10731;SDS011;5417;42.686;23.244;2023-03-16T01:59:08;0.60;;;0.60;;
10731;SDS011;5417;42.686;23.244;2023-03-16T02:01:39;0.30;;;0.30;;
10731;SDS011;5417;42.686;23.244;2023-03-16T02:04:08;0.30;;;0.30;;
10731;SDS011;5417;42.686;23.244;2023-03-16T02:06:42;0.27;;;0.27;;
10731;SDS011;5417;42.686;23.244;2023-03-16T02:09:09;0.30;;;0.30;;
10731;SDS011;5417;42.686;23.244;2023-03-16T02:11:38;0.40;;;0.40;;
10731;SDS011;5417;42.686;23.244;2023-03-16T02:14:07;0.40;;;0.40;;
10731;SDS011;5417;42.686;23.244;2023-03-16T02:16:35;0.30;;;0.30;;
10731;SDS011;5417;42.686;23.244;2023-03-16T02:19:03;0.40;;;0.40;;
10731;SDS011;5417;42.686;23.244;2023-03-16T02:21:40;0.33;;;0.33;;
10731;SDS011;5417;42.686;23.244;2023-03-16T02:24:18;0.50;;;0.50;;
10731;SDS011;5417;42.686;23.244;2023-03-16T02:26:48;0.60;;;0.60;;
10731;SDS011;5417;42.686;23.244;2023-03-16T02:29:20;0.50;;;0.50;;
10731;SDS011;5417;42.686;23.244;2023-03-16T02:31:56;0.70;;;0.70;;
10731;SDS011;5417;42.686;23.244;2023-03-16T02:34:27;0.77;;;0.77;;
10731;SDS011;5417;42.686;23.244;2023-03-16T02:36:54;0.80;;;0.80;;
10731;SDS011;5417;42.686;23.244;2023-03-16T02:39:22;0.80;;;0.80;;
10731;SDS011;5417;42.686;23.244;2023-03-16T02:41:49;0.40;;;0.40;;
10731;SDS011;5417;42.686;23.244;2023-03-16T02:44:16;0.60;;;0.60;;
10731;SDS011;5417;42.686;23.244;2023-03-16T02:46:50;0.60;;;0.60;;
10731;SDS011;5417;42.686;23.244;2023-03-16T02:49:22;0.40;;;0.40;;
10731;SDS011;5417;42.686;23.244;2023-03-16T02:51:52;0.53;;;0.53;;
10731;SDS011;5417;42.686;23.244;2023-03-16T02:54:21;0.47;;;0.47;;
10731;SDS011;5417;42.686;23.244;2023-03-16T02:56:48;0.63;;;0.63;;
10731;SDS011;5417;42.686;23.244;2023-03-16T02:59:15;0.50;;;0.50;;
10731;SDS011;5417;42.686;23.244;2023-03-16T03:01:42;0.40;;;0.40;;
10731;SDS011;5417;42.686;23.244;2023-03-16T03:04:09;0.33;;;0.33;;
10731;SDS011;5417;42.686;23.244;2023-03-16T03:06:37;0.33;;;0.33;;
10731;SDS011;5417;42.686;23.244;2023-03-16T03:09:06;0.40;;;0.40;;
10731;SDS011;5417;42.686;23.244;2023-03-16T03:11:35;0.40;;;0.40;;
10731;SDS011;5417;42.686;23.244;2023-03-16T03:14:02;0.30;;;0.30;;
10731;SDS011;5417;42.686;23.244;2023-03-16T03:16:29;0.43;;;0.43;;
10731;SDS011;5417;42.686;23.244;2023-03-16T03:18:56;0.50;;;0.50;;
10731;SDS011;5417;42.686;23.244;2023-03-16T03:21:24;0.40;;;0.40;;
10731;SDS011;5417;42.686;23.244;2023-03-16T03:23:52;0.40;;;0.40;;
10731;SDS011;5417;42.686;23.244;2023-03-16T03:26:19;0.40;;;0.40;;
10731;SDS011;5417;42.686;23.244;2023-03-16T03:28:46;0.30;;;0.30;;
10731;SDS011;5417;42.686;23.244;2023-03-16T03:31:13;0.30;;;0.30;;
10731;SDS011;5417;42.686;23.244;2023-03-16T03:33:41;0.30;;;0.30;;
10731;SDS011;5417;42.686;23.244;2023-03-16T03:36:08;0.40;;;0.40;;
10731;SDS011;5417;42.686;23.244;2023-03-16T03:38:36;0.23;;;0.23;;
10731;SDS011;5417;42.686;23.244;2023-03-16T03:41:05;0.33;;;0.33;;
10731;SDS011;5417;42.686;23.244;2023-03-16T03:43:32;0.20;;;0.20;;
10731;SDS011;5417;42.686;23.244;2023-03-16T03:46:00;0.30;;;0.30;;
10731;SDS011;5417;42.686;23.244;2023-03-16T03:48:28;0.47;;;0.47;;
10731;SDS011;5417;42.686;23.244;2023-03-16T03:50:55;0.30;;;0.30;;
10731;SDS011;5417;42.686;23.244;2023-03-16T03:53:21;0.40;;;0.40;;
10731;SDS011;5417;42.686;23.244;2023-03-16T03:55:48;1.13;;;0.20;;
10731;SDS011;5417;42.686;23.244;2023-03-16T03:58:17;0.40;;;0.40;;
10731;SDS011;5417;42.686;23.244;2023-03-16T04:00:44;0.20;;;0.20;;
10731;SDS011;5417;42.686;23.244;2023-03-16T04:03:11;0.30;;;0.30;;
10731;SDS011;5417;42.686;23.244;2023-03-16T04:05:38;0.30;;;0.30;;
10731;SDS011;5417;42.686;23.244;2023-03-16T04:08:05;0.30;;;0.30;;
10731;SDS011;5417;42.686;23.244;2023-03-16T04:10:31;0.20;;;0.20;;
10731;SDS011;5417;42.686;23.244;2023-03-16T04:12:58;0.40;;;0.40;;
10731;SDS011;5417;42.686;23.244;2023-03-16T04:15:27;0.50;;;0.50;;
10731;SDS011;5417;42.686;23.244;2023-03-16T04:17:54;0.30;;;0.30;;
10731;SDS011;5417;42.686;23.244;2023-03-16T04:20:21;0.40;;;0.40;;
10731;SDS011;5417;42.686;23.244;2023-03-16T04:22:48;0.40;;;0.40;;
10731;SDS011;5417;42.686;23.244;2023-03-16T04:25:22;0.33;;;0.33;;
10731;SDS011;5417;42.686;23.244;2023-03-16T04:27:50;0.33;;;0.33;;
10731;SDS011;5417;42.686;23.244;2023-03-16T04:30:17;0.50;;;0.50;;
10731;SDS011;5417;42.686;23.244;2023-03-16T04:32:45;0.37;;;0.33;;
10731;SDS011;5417;42.686;23.244;2023-03-16T04:35:12;0.33;;;0.33;;
10731;SDS011;5417;42.686;23.244;2023-03-16T04:37:41;1.70;;;0.50;;
10731;SDS011;5417;42.686;23.244;2023-03-16T04:40:08;0.30;;;0.30;;
10731;SDS011;5417;42.686;23.244;2023-03-16T04:42:41;0.67;;;0.43;;
10731;SDS011;5417;42.686;23.244;2023-03-16T04:45:08;0.97;;;0.40;;
10731;SDS011;5417;42.686;23.244;2023-03-16T04:47:36;0.20;;;0.20;;
10731;SDS011;5417;42.686;23.244;2023-03-16T04:50:04;0.20;;;0.20;;
10731;SDS011;5417;42.686;23.244;2023-03-16T04:52:32;0.43;;;0.40;;
10731;SDS011;5417;42.686;23.244;2023-03-16T04:54:59;0.30;;;0.30;;
10731;SDS011;5417;42.686;23.244;2023-03-16T04:57:26;0.30;;;0.30;;
10731;SDS011;5417;42.686;23.244;2023-03-16T04:59:53;0.60;;;0.60;;
10731;SDS011;5417;42.686;23.244;2023-03-16T05:02:20;0.40;;;0.40;;
10731;SDS011;5417;42.686;23.244;2023-03-16T05:04:48;0.50;;;0.50;;
10731;SDS011;5417;42.686;23.244;2023-03-16T05:07:16;2.47;;;0.80;;
10731;SDS011;5417;42.686;23.244;2023-03-16T05:09:43;0.77;;;0.77;;
10731;SDS011;5417;42.686;23.244;2023-03-16T05:12:10;0.50;;;0.50;;
10731;SDS011;5417;42.686;23.244;2023-03-16T05:14:37;0.57;;;0.57;;
10731;SDS011;5417;42.686;23.244;2023-03-16T05:17:04;0.77;;;0.77;;
10731;SDS011;5417;42.686;23.244;2023-03-16T05:19:31;0.40;;;0.40;;
10731;SDS011;5417;42.686;23.244;2023-03-16T05:21:59;0.67;;;0.67;;
10731;SDS011;5417;42.686;23.244;2023-03-16T05:24:27;0.40;;;0.40;;
10731;SDS011;5417;42.686;23.244;2023-03-16T05:26:54;0.40;;;0.40;;
10731;SDS011;5417;42.686;23.244;2023-03-16T05:29:21;0.50;;;0.50;;
10731;SDS011;5417;42.686;23.244;2023-03-16T05:31:50;0.93;;;0.93;;
10731;SDS011;5417;42.686;23.244;2023-03-16T05:34:18;0.60;;;0.60;;
10731;SDS011;5417;42.686;23.244;2023-03-16T05:36:45;0.77;;;0.77;;
10731;SDS011;5417;42.686;23.244;2023-03-16T05:39:12;0.50;;;0.50;;
10731;SDS011;5417;42.686;23.244;2023-03-16T05:41:40;0.50;;;0.50;;
10731;SDS011;5417;42.686;23.244;2023-03-16T05:44:07;0.70;;;0.70;;
10731;SDS011;5417;42.686;23.244;2023-03-16T05:46:35;0.60;;;0.60;;
10731;SDS011;5417;42.686;23.244;2023-03-16T05:49:02;0.40;;;0.40;;
10731;SDS011;5417;42.686;23.244;2023-03-16T05:51:29;0.70;;;0.70;;
10731;SDS011;5417;42.686;23.244;2023-03-16T05:53:58;0.97;;;0.80;;
10731;SDS011;5417;42.686;23.244;2023-03-16T05:56:25;2.10;;;0.70;;
10731;SDS011;5417;42.686;23.244;2023-03-16T05:58:55;0.73;;;0.73;;
10731;SDS011;5417;42.686;23.244;2023-03-16T06:01:22;0.60;;;0.60;;
10731;SDS011;5417;42.686;23.244;2023-03-16T06:03:49;0.97;;;0.90;;
10731;SDS011;5417;42.686;23.244;2023-03-16T06:06:17;0.67;;;0.67;;
10731;SDS011;5417;42.686;23.244;2023-03-16T06:08:45;0.80;;;0.80;;
10731;SDS011;5417;42.686;23.244;2023-03-16T06:11:12;1.07;;;1.07;;
10731;SDS011;5417;42.686;23.244;2023-03-16T06:13:39;1.63;;;1.53;;
10731;SDS011;5417;42.686;23.244;2023-03-16T06:16:08;1.20;;;1.20;;
10731;SDS011;5417;42.686;23.244;2023-03-16T06:18:35;1.70;;;1.60;;
10731;SDS011;5417;42.686;23.244;2023-03-16T06:21:03;1.90;;;1.80;;
10731;SDS011;5417;42.686;23.244;2023-03-16T06:23:31;2.10;;;1.77;;
10731;SDS011;5417;42.686;23.244;2023-03-16T06:26:00;3.27;;;2.60;;
10731;SDS011;5417;42.686;23.244;2023-03-16T06:28:27;1.07;;;1.07;;
10731;SDS011;5417;42.686;23.244;2023-03-16T06:30:54;1.40;;;1.30;;
10731;SDS011;5417;42.686;23.244;2023-03-16T06:33:23;1.50;;;1.40;;
10731;SDS011;5417;42.686;23.244;2023-03-16T06:35:50;1.10;;;1.10;;
10731;SDS011;5417;42.686;23.244;2023-03-16T06:38:17;1.20;;;1.20;;
10731;SDS011;5417;42.686;23.244;2023-03-16T06:40:49;1.13;;;1.13;;
10731;SDS011;5417;42.686;23.244;2023-03-16T06:43:17;1.43;;;1.43;;
10731;SDS011;5417;42.686;23.244;2023-03-16T06:45:44;1.30;;;1.30;;
10731;SDS011;5417;42.686;23.244;2023-03-16T06:48:11;1.50;;;1.50;;
10731;SDS011;5417;42.686;23.244;2023-03-16T06:50:39;1.00;;;1.00;;
10731;SDS011;5417;42.686;23.244;2023-03-16T06:53:06;1.47;;;1.37;;
10731;SDS011;5417;42.686;23.244;2023-03-16T06:55:33;1.20;;;1.20;;
10731;SDS011;5417;42.686;23.244;2023-03-16T06:58:00;1.00;;;1.00;;
10731;SDS011;5417;42.686;23.244;2023-03-16T07:00:27;1.40;;;1.40;;
10731;SDS011;5417;42.686;23.244;2023-03-16T07:02:54;1.40;;;1.40;;
10731;SDS011;5417;42.686;23.244;2023-03-16T07:05:21;0.80;;;0.80;;
10731;SDS011;5417;42.686;23.244;2023-03-16T07:07:54;1.30;;;1.30;;
10731;SDS011;5417;42.686;23.244;2023-03-16T07:10:21;1.20;;;1.20;;
10731;SDS011;5417;42.686;23.244;2023-03-16T07:12:49;1.40;;;1.30;;
10731;SDS011;5417;42.686;23.244;2023-03-16T07:15:16;1.20;;;1.20;;
10731;SDS011;5417;42.686;23.244;2023-03-16T07:17:43;1.40;;;1.30;;
10731;SDS011;5417;42.686;23.244;2023-03-16T07:20:11;1.30;;;1.30;;
10731;SDS011;5417;42.686;23.244;2023-03-16T07:22:38;2.00;;;1.37;;
10731;SDS011;5417;42.686;23.244;2023-03-16T07:25:10;1.83;;;1.73;;
10731;SDS011;5417;42.686;23.244;2023-03-16T07:27:38;1.10;;;1.10;;
10731;SDS011;5417;42.686;23.244;2023-03-16T07:30:08;1.30;;;1.30;;
10731;SDS011;5417;42.686;23.244;2023-03-16T07:32:38;1.37;;;1.37;;
10731;SDS011;5417;42.686;23.244;2023-03-16T07:35:06;1.70;;;1.60;;
10731;SDS011;5417;42.686;23.244;2023-03-16T07:37:33;2.00;;;1.90;;
10731;SDS011;5417;42.686;23.244;2023-03-16T07:40:01;1.73;;;1.63;;
10731;SDS011;5417;42.686;23.244;2023-03-16T07:42:30;1.10;;;1.10;;
10731;SDS011;5417;42.686;23.244;2023-03-16T07:44:59;1.10;;;1.10;;
10731;SDS011;5417;42.686;23.244;2023-03-16T07:47:26;0.90;;;0.90;;
10731;SDS011;5417;42.686;23.244;2023-03-16T07:49:54;1.27;;;1.27;;
10731;SDS011;5417;42.686;23.244;2023-03-16T07:52:21;1.60;;;1.50;;
10731;SDS011;5417;42.686;23.244;2023-03-16T07:54:49;1.60;;;1.50;;
10731;SDS011;5417;42.686;23.244;2023-03-16T07:57:16;1.90;;;1.80;;
10731;SDS011;5417;42.686;23.244;2023-03-16T07:59:44;1.20;;;1.13;;
10731;SDS011;5417;42.686;23.244;2023-03-16T08:02:11;1.57;;;1.47;;
10731;SDS011;5417;42.686;23.244;2023-03-16T08:04:42;1.33;;;1.30;;
10731;SDS011;5417;42.686;23.244;2023-03-16T08:07:09;1.17;;;1.17;;
10731;SDS011;5417;42.686;23.244;2023-03-16T08:09:38;1.60;;;1.50;;
10731;SDS011;5417;42.686;23.244;2023-03-16T08:12:06;1.20;;;1.20;;
10731;SDS011;5417;42.686;23.244;2023-03-16T08:14:34;1.60;;;1.50;;
10731;SDS011;5417;42.686;23.244;2023-03-16T08:17:14;1.17;;;1.17;;
10731;SDS011;5417;42.686;23.244;2023-03-16T08:20:02;1.47;;;1.10;;
10731;SDS011;5417;42.686;23.244;2023-03-16T08:22:50;0.80;;;0.80;;
10731;SDS011;5417;42.686;23.244;2023-03-16T08:25:19;0.70;;;0.70;;
10731;SDS011;5417;42.686;23.244;2023-03-16T08:27:46;0.90;;;0.90;;
10731;SDS011;5417;42.686;23.244;2023-03-16T08:30:15;0.90;;;0.90;;
10731;SDS011;5417;42.686;23.244;2023-03-16T08:32:44;0.80;;;0.80;;
10731;SDS011;5417;42.686;23.244;2023-03-16T08:35:11;1.07;;;0.90;;
10731;SDS011;5417;42.686;23.244;2023-03-16T08:37:40;0.83;;;0.83;;
10731;SDS011;5417;42.686;23.244;2023-03-16T08:40:08;1.20;;;1.20;;
10731;SDS011;5417;42.686;23.244;2023-03-16T08:42:38;0.90;;;0.90;;
10731;SDS011;5417;42.686;23.244;2023-03-16T08:45:06;0.83;;;0.80;;
10731;SDS011;5417;42.686;23.244;2023-03-16T08:47:34;1.27;;;1.27;;
10731;SDS011;5417;42.686;23.244;2023-03-16T08:50:05;1.00;;;1.00;;
10731;SDS011;5417;42.686;23.244;2023-03-16T08:52:34;0.90;;;0.90;;
10731;SDS011;5417;42.686;23.244;2023-03-16T08:55:01;1.33;;;1.20;;
10731;SDS011;5417;42.686;23.244;2023-03-16T08:57:30;1.03;;;1.00;;
10731;SDS011;5417;42.686;23.244;2023-03-16T08:59:57;1.33;;;1.20;;
10731;SDS011;5417;42.686;23.244;2023-03-16T09:02:24;1.10;;;1.10;;
10731;SDS011;5417;42.686;23.244;2023-03-16T09:04:51;0.70;;;0.70;;
10731;SDS011;5417;42.686;23.244;2023-03-16T09:07:20;1.27;;;1.10;;
10731;SDS011;5417;42.686;23.244;2023-03-16T09:09:47;0.93;;;0.93;;
10731;SDS011;5417;42.686;23.244;2023-03-16T09:12:14;1.13;;;1.13;;
10731;SDS011;5417;42.686;23.244;2023-03-16T09:14:42;0.70;;;0.70;;
10731;SDS011;5417;42.686;23.244;2023-03-16T09:17:10;0.87;;;0.87;;
10731;SDS011;5417;42.686;23.244;2023-03-16T09:19:37;1.50;;;1.40;;
10731;SDS011;5417;42.686;23.244;2023-03-16T09:22:04;1.50;;;1.50;;
10731;SDS011;5417;42.686;23.244;2023-03-16T09:24:33;1.80;;;1.70;;
10731;SDS011;5417;42.686;23.244;2023-03-16T09:27:00;1.50;;;1.40;;
10731;SDS011;5417;42.686;23.244;2023-03-16T09:29:27;1.13;;;1.13;;
10731;SDS011;5417;42.686;23.244;2023-03-16T09:31:54;1.97;;;1.43;;
10731;SDS011;5417;42.686;23.244;2023-03-16T09:34:21;1.20;;;1.20;;
10731;SDS011;5417;42.686;23.244;2023-03-16T09:36:48;0.97;;;0.97;;
10731;SDS011;5417;42.686;23.244;2023-03-16T09:39:15;0.97;;;0.97;;
10731;SDS011;5417;42.686;23.244;2023-03-16T09:41:45;1.30;;;1.30;;
10731;SDS011;5417;42.686;23.244;2023-03-16T09:44:22;1.50;;;1.40;;
10731;SDS011;5417;42.686;23.244;2023-03-16T09:46:58;1.37;;;1.37;;
10731;SDS011;5417;42.686;23.244;2023-03-16T09:49:27;1.30;;;1.30;;
10731;SDS011;5417;42.686;23.244;2023-03-16T09:52:04;1.73;;;1.60;;
10731;SDS011;5417;42.686;23.244;2023-03-16T09:54:39;1.30;;;1.30;;
10731;SDS011;5417;42.686;23.244;2023-03-16T09:57:20;1.30;;;1.30;;
10731;SDS011;5417;42.686;23.244;2023-03-16T09:59:51;1.70;;;1.60;;
10731;SDS011;5417;42.686;23.244;2023-03-16T10:02:28;1.20;;;1.20;;
10731;SDS011;5417;42.686;23.244;2023-03-16T10:05:07;4.27;;;3.87;;
10731;SDS011;5417;42.686;23.244;2023-03-16T10:07:37;2.40;;;2.20;;
10731;SDS011;5417;42.686;23.244;2023-03-16T10:10:19;1.77;;;1.67;;
10731;SDS011;5417;42.686;23.244;2023-03-16T10:12:53;1.47;;;1.40;;
10731;SDS011;5417;42.686;23.244;2023-03-16T10:15:25;1.70;;;1.60;;
10731;SDS011;5417;42.686;23.244;2023-03-16T10:17:55;2.00;;;1.90;;
10731;SDS011;5417;42.686;23.244;2023-03-16T10:20:26;2.13;;;2.03;;
10731;SDS011;5417;42.686;23.244;2023-03-16T10:22:57;2.00;;;1.90;;
10731;SDS011;5417;42.686;23.244;2023-03-16T10:25:26;2.50;;;2.30;;
10731;SDS011;5417;42.686;23.244;2023-03-16T10:28:16;1.57;;;1.47;;
10731;SDS011;5417;42.686;23.244;2023-03-16T10:30:44;1.73;;;1.63;;
10731;SDS011;5417;42.686;23.244;2023-03-16T10:33:16;1.80;;;1.70;;
10731;SDS011;5417;42.686;23.244;2023-03-16T10:35:50;1.80;;;1.70;;
10731;SDS011;5417;42.686;23.244;2023-03-16T10:38:28;1.57;;;1.50;;
10731;SDS011;5417;42.686;23.244;2023-03-16T10:40:57;1.70;;;1.60;;
10731;SDS011;5417;42.686;23.244;2023-03-16T10:43:26;1.77;;;1.70;;
10731;SDS011;5417;42.686;23.244;2023-03-16T10:45:57;1.53;;;1.43;;
10731;SDS011;5417;42.686;23.244;2023-03-16T10:48:26;1.50;;;1.50;;
10731;SDS011;5417;42.686;23.244;2023-03-16T10:50:54;2.07;;;1.97;;
10731;SDS011;5417;42.686;23.244;2023-03-16T10:53:24;1.63;;;1.53;;
10731;SDS011;5417;42.686;23.244;2023-03-16T10:55:58;1.80;;;1.70;;
10731;SDS011;5417;42.686;23.244;2023-03-16T10:58:30;2.03;;;1.93;;
10731;SDS011;5417;42.686;23.244;2023-03-16T11:00:58;8.77;;;7.83;;
10731;SDS011;5417;42.686;23.244;2023-03-16T11:03:26;2.10;;;2.00;;
10731;SDS011;5417;42.686;23.244;2023-03-16T11:05:56;2.47;;;2.33;;
10731;SDS011;5417;42.686;23.244;2023-03-16T11:08:25;2.30;;;2.20;;
10731;SDS011;5417;42.686;23.244;2023-03-16T11:10:54;2.30;;;2.10;;
10731;SDS011;5417;42.686;23.244;2023-03-16T11:13:23;2.63;;;2.53;;
10731;SDS011;5417;42.686;23.244;2023-03-16T11:15:59;2.57;;;2.47;;
10731;SDS011;5417;42.686;23.244;2023-03-16T11:18:30;2.17;;;2.07;;
10731;SDS011;5417;42.686;23.244;2023-03-16T11:21:01;2.50;;;2.40;;
10731;SDS011;5417;42.686;23.244;2023-03-16T11:23:33;2.57;;;2.47;;
10731;SDS011;5417;42.686;23.244;2023-03-16T11:26:06;2.10;;;2.00;;
10731;SDS011;5417;42.686;23.244;2023-03-16T11:28:44;1.83;;;1.73;;
10731;SDS011;5417;42.686;23.244;2023-03-16T11:31:21;2.20;;;2.10;;
10731;SDS011;5417;42.686;23.244;2023-03-16T11:33:59;2.60;;;2.50;;
10731;SDS011;5417;42.686;23.244;2023-03-16T11:36:30;2.57;;;2.47;;
10731;SDS011;5417;42.686;23.244;2023-03-16T11:39:09;2.27;;;2.17;;
10731;SDS011;5417;42.686;23.244;2023-03-16T11:41:45;2.23;;;2.13;;
10731;SDS011;5417;42.686;23.244;2023-03-16T11:44:21;2.23;;;2.13;;
10731;SDS011;5417;42.686;23.244;2023-03-16T11:47:01;2.00;;;1.90;;
10731;SDS011;5417;42.686;23.244;2023-03-16T11:49:36;2.40;;;2.30;;
10731;SDS011;5417;42.686;23.244;2023-03-16T11:52:16;2.30;;;2.20;;
10731;SDS011;5417;42.686;23.244;2023-03-16T11:54:53;2.20;;;2.10;;
10731;SDS011;5417;42.686;23.244;2023-03-16T11:57:30;2.40;;;2.30;;
10731;SDS011;5417;42.686;23.244;2023-03-16T12:00:08;2.50;;;2.40;;
10731;SDS011;5417;42.686;23.244;2023-03-16T12:05:58;2.37;;;2.27;;
10731;SDS011;5417;42.686;23.244;2023-03-16T12:08:47;2.30;;;2.20;;
10731;SDS011;5417;42.686;23.244;2023-03-16T12:11:26;2.63;;;2.53;;
10731;SDS011;5417;42.686;23.244;2023-03-16T12:14:01;2.70;;;2.60;;
10731;SDS011;5417;42.686;23.244;2023-03-16T12:16:40;2.90;;;2.77;;
10731;SDS011;5417;42.686;23.244;2023-03-16T12:19:13;2.60;;;2.50;;
10731;SDS011;5417;42.686;23.244;2023-03-16T12:21:43;3.03;;;2.83;;
10731;SDS011;5417;42.686;23.244;2023-03-16T12:24:15;2.47;;;2.27;;
10731;SDS011;5417;42.686;23.244;2023-03-16T12:26:50;3.00;;;2.80;;
10731;SDS011;5417;42.686;23.244;2023-03-16T12:29:20;2.80;;;2.63;;
10731;SDS011;5417;42.686;23.244;2023-03-16T12:31:56;2.47;;;2.37;;
10731;SDS011;5417;42.686;23.244;2023-03-16T12:34:30;2.80;;;2.70;;
10731;SDS011;5417;42.686;23.244;2023-03-16T12:37:12;2.43;;;2.33;;
10731;SDS011;5417;42.686;23.244;2023-03-16T12:39:47;3.60;;;3.30;;
10731;SDS011;5417;42.686;23.244;2023-03-16T12:42:37;2.77;;;2.57;;
10731;SDS011;5417;42.686;23.244;2023-03-16T12:45:14;2.90;;;2.73;;
10731;SDS011;5417;42.686;23.244;2023-03-16T12:47:48;2.80;;;2.70;;
10731;SDS011;5417;42.686;23.244;2023-03-16T12:50:23;2.80;;;2.70;;
10731;SDS011;5417;42.686;23.244;2023-03-16T12:52:50;2.77;;;2.67;;
10731;SDS011;5417;42.686;23.244;2023-03-16T12:55:22;3.00;;;2.90;;
10731;SDS011;5417;42.686;23.244;2023-03-16T12:57:57;3.30;;;3.10;;
10731;SDS011;5417;42.686;23.244;2023-03-16T13:00:31;3.37;;;3.17;;
10731;SDS011;5417;42.686;23.244;2023-03-16T13:03:10;3.50;;;3.30;;
10731;SDS011;5417;42.686;23.244;2023-03-16T13:05:45;3.40;;;3.20;;
10731;SDS011;5417;42.686;23.244;2023-03-16T13:08:16;4.03;;;3.83;;
10731;SDS011;5417;42.686;23.244;2023-03-16T13:10:58;4.33;;;4.03;;
10731;SDS011;5417;42.686;23.244;2023-03-16T13:13:26;3.73;;;3.53;;
10731;SDS011;5417;42.686;23.244;2023-03-16T13:16:00;4.10;;;3.80;;
10731;SDS011;5417;42.686;23.244;2023-03-16T13:18:37;4.13;;;3.83;;
10731;SDS011;5417;42.686;23.244;2023-03-16T13:21:14;4.10;;;3.87;;
10731;SDS011;5417;42.686;23.244;2023-03-16T13:23:54;4.97;;;4.67;;
10731;SDS011;5417;42.686;23.244;2023-03-16T13:26:25;4.30;;;4.00;;
10731;SDS011;5417;42.686;23.244;2023-03-16T13:29:05;4.10;;;3.80;;
10731;SDS011;5417;42.686;23.244;2023-03-16T13:31:43;3.83;;;3.63;;
10731;SDS011;5417;42.686;23.244;2023-03-16T13:34:11;3.70;;;3.50;;
10731;SDS011;5417;42.686;23.244;2023-03-16T13:36:42;4.27;;;3.97;;
10731;SDS011;5417;42.686;23.244;2023-03-16T13:39:12;3.97;;;3.77;;
10731;SDS011;5417;42.686;23.244;2023-03-16T13:41:42;4.60;;;4.30;;
10731;SDS011;5417;42.686;23.244;2023-03-16T13:44:20;4.47;;;4.20;;
10731;SDS011;5417;42.686;23.244;2023-03-16T13:46:49;4.50;;;4.20;;
10731;SDS011;5417;42.686;23.244;2023-03-16T13:49:16;4.30;;;4.00;;
10731;SDS011;5417;42.686;23.244;2023-03-16T13:51:45;4.70;;;4.40;;
10731;SDS011;5417;42.686;23.244;2023-03-16T13:54:17;4.93;;;4.63;;
10731;SDS011;5417;42.686;23.244;2023-03-16T13:56:48;4.80;;;4.50;;
10731;SDS011;5417;42.686;23.244;2023-03-16T13:59:15;13.13;;;10.23;;
10731;SDS011;5417;42.686;23.244;2023-03-16T14:01:43;5.00;;;4.70;;
10731;SDS011;5417;42.686;23.244;2023-03-16T14:04:15;5.17;;;4.87;;
10731;SDS011;5417;42.686;23.244;2023-03-16T14:06:53;5.27;;;4.87;;
10731;SDS011;5417;42.686;23.244;2023-03-16T14:09:22;5.70;;;5.30;;
10731;SDS011;5417;42.686;23.244;2023-03-16T14:11:57;6.00;;;5.60;;
10731;SDS011;5417;42.686;23.244;2023-03-16T14:14:26;6.00;;;5.60;;
10731;SDS011;5417;42.686;23.244;2023-03-16T14:16:59;5.77;;;5.37;;
10731;SDS011;5417;42.686;23.244;2023-03-16T14:19:29;5.03;;;4.73;;
10731;SDS011;5417;42.686;23.244;2023-03-16T14:22:10;6.17;;;5.57;;
10731;SDS011;5417;42.686;23.244;2023-03-16T14:24:39;6.10;;;5.60;;
10731;SDS011;5417;42.686;23.244;2023-03-16T14:27:17;6.00;;;5.47;;
10731;SDS011;5417;42.686;23.244;2023-03-16T14:29:50;6.80;;;6.37;;
10731;SDS011;5417;42.686;23.244;2023-03-16T14:32:23;5.93;;;5.50;;
10731;SDS011;5417;42.686;23.244;2023-03-16T14:34:58;7.40;;;6.80;;
10731;SDS011;5417;42.686;23.244;2023-03-16T14:37:36;6.93;;;6.40;;
10731;SDS011;5417;42.686;23.244;2023-03-16T14:40:04;6.40;;;5.90;;
10731;SDS011;5417;42.686;23.244;2023-03-16T14:42:33;6.30;;;5.83;;
10731;SDS011;5417;42.686;23.244;2023-03-16T14:45:01;6.90;;;6.30;;
10731;SDS011;5417;42.686;23.244;2023-03-16T14:47:35;6.83;;;6.33;;
10731;SDS011;5417;42.686;23.244;2023-03-16T14:50:07;6.47;;;6.07;;
10731;SDS011;5417;42.686;23.244;2023-03-16T14:52:40;7.17;;;6.57;;
10731;SDS011;5417;42.686;23.244;2023-03-16T14:55:10;6.73;;;6.23;;
10731;SDS011;5417;42.686;23.244;2023-03-16T14:57:41;6.77;;;6.27;;
10731;SDS011;5417;42.686;23.244;2023-03-16T15:00:10;6.72;;;6.20;;
10731;SDS011;5417;42.686;23.244;2023-03-16T15:02:39;6.40;;;5.90;;
10731;SDS011;5417;42.686;23.244;2023-03-16T15:05:09;6.60;;;6.10;;
10731;SDS011;5417;42.686;23.244;2023-03-16T15:07:46;7.10;;;6.60;;